createdAt,value
2022-09-23T00:01:20.840Z,90.94
2022-09-23T00:03:49.356Z,91.20
2022-09-23T00:06:24.237Z,91.06
2022-09-23T00:08:52.533Z,90.80
2022-09-23T00:11:25.342Z,91.32
2022-09-23T00:13:58.864Z,91.57
2022-09-23T00:16:32.683Z,91.80
2022-09-23T00:19:02.544Z,92.17
2022-09-23T00:21:30.074Z,92.64
2022-09-23T00:23:57.558Z,92.34
2022-09-23T00:26:25.038Z,92.68
2022-09-23T00:28:52.661Z,93.20
2022-09-23T00:31:27.396Z,93.34
2022-09-23T00:34:00.450Z,93.36
2022-09-23T00:36:29.669Z,93.38
2022-09-23T00:38:57.369Z,93.60
2022-09-23T00:41:26.077Z,94.07
2022-09-23T00:44:00.537Z,94.19
2022-09-23T00:46:43.617Z,94.00
2022-09-23T00:49:20.950Z,94.15
2022-09-23T00:51:59.104Z,93.98
2022-09-23T00:54:27.854Z,94.04
2022-09-23T00:56:57.699Z,94.03
2022-09-23T00:59:26.326Z,93.87
2022-09-23T01:01:57.979Z,93.69
2022-09-23T01:04:28.865Z,93.69
2022-09-23T01:06:56.158Z,93.69
2022-09-23T01:09:25.309Z,93.55
2022-09-23T01:12:24.417Z,93.94
2022-09-23T01:15:12.695Z,94.00
2022-09-23T01:18:23.165Z,94.05
2022-09-23T01:20:59.453Z,94.02
2022-09-23T01:24:07.962Z,94.43
2022-09-23T01:27:19.491Z,94.44
2022-09-23T01:30:08.381Z,94.52
2022-09-23T01:32:53.370Z,95.13
2022-09-23T01:35:44.458Z,95.06
2022-09-23T01:38:51.415Z,95.06
2022-09-23T01:42:07.273Z,95.03
2022-09-23T01:45:05.467Z,95.38
2022-09-23T01:47:39.966Z,95.16
2022-09-23T01:50:35.495Z,94.99
2022-09-23T01:53:12.093Z,95.47
2022-09-23T01:55:48.723Z,95.15
2022-09-23T01:58:38.146Z,95.16
2022-09-23T02:01:08.700Z,95.49
2022-09-23T02:04:04.253Z,95.39
2022-09-23T02:06:50.826Z,95.22
2022-09-23T02:09:28.626Z,94.77
2022-09-23T02:12:06.157Z,94.84
2022-09-23T02:14:52.122Z,94.67
2022-09-23T02:17:39.725Z,94.86
2022-09-23T02:20:08.171Z,95.07
2022-09-23T02:23:08.757Z,95.17
2022-09-23T02:26:00.644Z,95.07
2022-09-23T02:29:13.373Z,94.87
2022-09-23T02:31:50.210Z,95.31
2022-09-23T02:34:50.313Z,95.16
2022-09-23T02:37:54.011Z,95.14
2022-09-23T02:40:53.755Z,95.39
2022-09-23T02:43:52.097Z,95.19
2022-09-23T02:46:20.569Z,95.59
2022-09-23T02:49:11.215Z,95.43
2022-09-23T02:51:40.951Z,95.42
2022-09-23T02:54:14.997Z,95.36
2022-09-23T02:56:42.676Z,95.40
2022-09-23T02:59:12.382Z,95.62
2022-09-23T03:02:20.737Z,95.81
2022-09-23T03:05:34.888Z,95.78
2022-09-23T03:08:22.581Z,95.81
2022-09-23T03:11:07.014Z,95.90
2022-09-23T03:14:07.606Z,96.02
2022-09-23T03:16:58.364Z,96.29
2022-09-23T03:19:45.714Z,96.45
2022-09-23T03:22:21.388Z,96.54
2022-09-23T03:24:54.048Z,96.56
2022-09-23T03:27:28.602Z,96.22
2022-09-23T03:29:57.454Z,96.35
2022-09-23T03:32:29.122Z,96.25
2022-09-23T03:35:01.142Z,96.31
2022-09-23T03:37:37.717Z,96.06
2022-09-23T03:40:30.884Z,95.94
2022-09-23T03:43:01.480Z,95.82
2022-09-23T03:45:34.189Z,95.85
2022-09-23T03:48:03.258Z,95.69
2022-09-23T03:50:30.715Z,95.82
2022-09-23T03:52:58.442Z,96.01
2022-09-23T03:55:25.963Z,95.85
2022-09-23T03:57:53.542Z,95.93
2022-09-23T04:00:20.818Z,95.93
2022-09-23T04:02:49.907Z,95.80
2022-09-23T04:05:18.103Z,95.87
2022-09-23T04:07:45.809Z,95.77
2022-09-23T04:10:13.190Z,95.51
2022-09-23T04:12:40.438Z,95.40
2022-09-23T04:15:08.075Z,95.36
2022-09-23T04:17:35.645Z,95.33
2022-09-23T04:20:04.114Z,95.19
2022-09-23T04:22:33.270Z,94.99
2022-09-23T04:25:00.751Z,94.87
2022-09-23T04:27:27.964Z,94.88
2022-09-23T04:29:55.162Z,94.72
2022-09-23T04:32:22.779Z,94.58
2022-09-23T04:34:49.928Z,94.48
2022-09-23T04:37:17.138Z,94.40
2022-09-23T04:39:44.554Z,94.18
2022-09-23T04:42:11.699Z,93.97
2022-09-23T04:44:39.811Z,93.84
2022-09-23T04:47:07.513Z,93.73
2022-09-23T04:49:34.878Z,93.79
2022-09-23T04:52:02.912Z,93.44
2022-09-23T04:54:30.286Z,93.50
2022-09-23T04:56:57.626Z,93.39
2022-09-23T04:59:25.124Z,92.84
2022-09-23T05:01:54.634Z,92.58
2022-09-23T05:04:21.915Z,92.13
2022-09-23T05:06:49.350Z,92.31
2022-09-23T05:09:17.970Z,92.04
2022-09-23T05:11:45.758Z,91.74
2022-09-23T05:14:13.355Z,91.46
2022-09-23T05:16:41.064Z,91.00
2022-09-23T05:19:08.378Z,90.74
2022-09-23T05:21:36.635Z,90.37
2022-09-23T05:24:04.248Z,90.07
2022-09-23T05:26:32.945Z,89.86
2022-09-23T05:29:00.933Z,89.46
2022-09-23T05:31:30.547Z,89.13
2022-09-23T05:34:04.805Z,88.78
2022-09-23T05:36:38.732Z,88.55
2022-09-23T05:39:08.238Z,88.02
2022-09-23T05:41:37.191Z,87.52
2022-09-23T05:44:04.889Z,87.03
2022-09-23T05:46:33.216Z,86.68
2022-09-23T05:49:03.353Z,86.13
2022-09-23T05:51:32.899Z,85.51
2022-09-23T05:54:04.400Z,85.23
2022-09-23T05:56:34.518Z,84.47
2022-09-23T05:59:03.728Z,84.53
2022-09-23T06:01:35.408Z,84.35
2022-09-23T06:04:06.194Z,84.27
2022-09-23T06:06:37.222Z,84.08
2022-09-23T06:09:06.917Z,83.86
2022-09-23T06:11:36.080Z,83.49
2022-09-23T06:14:04.339Z,83.11
2022-09-23T06:16:35.360Z,83.49
2022-09-23T06:19:06.476Z,83.56
2022-09-23T06:21:40.606Z,82.68
2022-09-23T06:24:09.830Z,83.30
2022-09-23T06:26:38.426Z,83.34
2022-09-23T06:29:12.175Z,83.20
2022-09-23T06:31:42.168Z,83.62
2022-09-23T06:34:14.599Z,83.48
2022-09-23T06:36:45.434Z,83.78
2022-09-23T06:39:15.384Z,83.31
2022-09-23T06:41:44.393Z,82.74
2022-09-23T06:44:13.271Z,81.18
2022-09-23T06:46:40.662Z,79.66
2022-09-23T06:49:08.233Z,79.07
2022-09-23T06:51:36.809Z,78.57
2022-09-23T06:54:04.533Z,78.38
2022-09-23T06:56:37.824Z,77.97
2022-09-23T06:59:09.520Z,77.58
2022-09-23T07:01:37.157Z,77.52
2022-09-23T07:04:04.739Z,77.71
2022-09-23T07:06:32.173Z,77.09
2022-09-23T07:09:01.070Z,76.30
2022-09-23T07:11:28.532Z,75.21
2022-09-23T07:13:55.804Z,70.67
2022-09-23T07:16:23.616Z,58.77
2022-09-23T07:18:52.472Z,50.43
2022-09-23T07:21:19.976Z,43.49
2022-09-23T07:23:51.434Z,39.08
2022-09-23T07:26:20.367Z,37.67
2022-09-23T07:28:47.805Z,37.83
2022-09-23T07:31:30.670Z,34.64
2022-09-23T07:34:01.471Z,31.33
2022-09-23T07:36:32.864Z,30.79
2022-09-23T07:39:04.524Z,29.90
2022-09-23T07:41:33.889Z,26.94
2022-09-23T07:44:01.694Z,26.52
2022-09-23T07:46:33.250Z,26.00
2022-09-23T07:49:02.435Z,25.73
2022-09-23T07:51:36.916Z,27.48
2022-09-23T07:54:13.637Z,24.16
2022-09-23T07:56:42.936Z,22.89
2022-09-23T07:59:20.349Z,19.73
2022-09-23T08:01:52.746Z,19.70
2022-09-23T08:04:31.235Z,18.76
2022-09-23T08:07:04.791Z,22.71
2022-09-23T08:09:41.750Z,26.01
2022-09-23T08:12:15.889Z,29.30
2022-09-23T08:14:45.384Z,29.63
2022-09-23T08:17:14.162Z,31.68
2022-09-23T08:19:41.309Z,31.04
2022-09-23T08:22:08.794Z,26.30
2022-09-23T08:24:36.077Z,22.89
2022-09-23T08:27:03.535Z,22.29
2022-09-23T08:29:30.898Z,19.08
2022-09-23T08:31:58.265Z,17.69
2022-09-23T08:34:27.986Z,16.36
2022-09-23T08:36:55.537Z,15.48
2022-09-23T08:39:23.243Z,15.01
2022-09-23T08:42:21.728Z,13.38
2022-09-23T08:44:56.394Z,17.76
2022-09-23T08:47:32.371Z,21.46
2022-09-23T08:50:18.224Z,24.29
2022-09-23T08:52:59.415Z,26.67
2022-09-23T08:55:46.124Z,29.16
2022-09-23T08:58:44.071Z,31.35
2022-09-23T09:01:31.620Z,33.07
2022-09-23T09:04:02.889Z,33.99
2022-09-23T09:06:52.218Z,34.91
2022-09-23T09:09:36.350Z,33.99
2022-09-23T09:12:34.191Z,30.76
2022-09-23T09:15:13.166Z,32.46
2022-09-23T09:17:51.909Z,34.73
2022-09-23T09:20:39.990Z,35.88
2022-09-23T09:23:37.686Z,37.18
2022-09-23T09:26:11.255Z,38.06
2022-09-23T09:28:59.112Z,38.18
2022-09-23T09:31:37.016Z,38.51
2022-09-23T09:34:38.268Z,38.09
2022-09-23T09:37:35.919Z,38.99
2022-09-23T09:40:04.273Z,39.97
2022-09-23T09:42:40.519Z,39.99
2022-09-23T09:45:45.350Z,40.41
2022-09-23T09:48:50.873Z,41.18
2022-09-23T09:51:25.372Z,41.88
2022-09-23T09:53:52.735Z,41.17
2022-09-23T09:56:31.147Z,36.21
2022-09-23T09:59:25.717Z,36.98
2022-09-23T10:02:25.942Z,37.36
2022-09-23T10:05:46.807Z,28.52
2022-09-23T10:08:32.456Z,20.82
2022-09-23T10:11:04.459Z,23.53
2022-09-23T10:13:32.569Z,26.72
2022-09-23T10:16:04.047Z,29.08
2022-09-23T10:18:48.227Z,31.01
2022-09-23T10:21:26.939Z,32.63
2022-09-23T10:23:58.678Z,33.75
2022-09-23T10:26:34.072Z,34.95
2022-09-23T10:29:48.739Z,36.28
2022-09-23T10:32:33.356Z,36.60
2022-09-23T10:35:09.458Z,36.36
2022-09-23T10:37:59.632Z,26.37
2022-09-23T10:40:50.234Z,23.19
2022-09-23T10:44:32.934Z,17.41
2022-09-23T10:47:37.021Z,13.94
2022-09-23T10:50:24.017Z,11.99
2022-09-23T10:53:15.292Z,9.93
2022-09-23T10:56:10.880Z,9.32
2022-09-23T10:59:02.340Z,9.22
2022-09-23T11:02:08.669Z,9.04
2022-09-23T11:04:47.278Z,10.55
2022-09-23T11:08:04.638Z,14.32
2022-09-23T11:11:13.014Z,16.61
2022-09-23T11:14:06.695Z,13.05
2022-09-23T11:17:14.891Z,10.97
2022-09-23T11:19:58.366Z,9.84
2022-09-23T11:23:03.270Z,8.85
2022-09-23T11:26:34.102Z,8.33
2022-09-23T11:29:35.537Z,7.51
2022-09-23T11:32:17.719Z,6.73
2022-09-23T11:35:12.998Z,6.40
2022-09-23T11:38:01.700Z,6.21
2022-09-23T11:40:36.505Z,6.35
2022-09-23T11:43:39.415Z,5.69
2022-09-23T11:47:07.739Z,6.38
2022-09-23T11:50:02.348Z,9.34
2022-09-23T11:52:41.592Z,8.23
2022-09-23T11:55:31.582Z,8.30
2022-09-23T11:58:22.587Z,7.43
2022-09-23T12:01:07.211Z,7.84
2022-09-23T12:03:53.678Z,7.06
2022-09-23T12:07:03.541Z,9.19
2022-09-23T12:09:58.070Z,11.73
2022-09-23T12:13:10.893Z,11.77
2022-09-23T12:16:07.071Z,9.86
2022-09-23T12:19:01.077Z,9.58
2022-09-23T12:22:03.367Z,8.10
2022-09-23T12:25:28.886Z,8.53
2022-09-23T12:28:05.585Z,8.57
2022-09-23T12:30:37.034Z,9.77
2022-09-23T12:33:10.284Z,10.31
2022-09-23T12:35:44.854Z,11.96
2022-09-23T12:38:38.361Z,11.11
2022-09-23T12:41:27.146Z,9.88
2022-09-23T12:44:15.468Z,8.81
2022-09-23T12:46:47.394Z,8.04
2022-09-23T12:49:29.900Z,7.54
2022-09-23T12:52:18.638Z,7.51
2022-09-23T12:54:49.908Z,7.43
2022-09-23T12:57:35.695Z,7.48
2022-09-23T13:00:12.920Z,7.63
2022-09-23T13:02:47.987Z,8.38
2022-09-23T13:05:37.931Z,9.28
2022-09-23T13:08:24.439Z,8.71
2022-09-23T13:11:05.147Z,8.21
2022-09-23T13:13:44.425Z,8.59
2022-09-23T13:16:13.031Z,8.51
2022-09-23T13:19:04.829Z,8.37
2022-09-23T13:21:47.193Z,8.35
2022-09-23T13:24:41.276Z,8.06
2022-09-23T13:27:36.007Z,7.88
2022-09-23T13:30:25.111Z,7.79
2022-09-23T13:33:11.191Z,7.40
2022-09-23T13:35:46.511Z,7.49
2022-09-23T13:38:26.466Z,7.72
2022-09-23T13:41:10.621Z,8.06
2022-09-23T13:43:44.575Z,8.04
2022-09-23T13:46:27.164Z,8.29
2022-09-23T13:48:56.438Z,8.77
2022-09-23T13:51:33.050Z,8.65
2022-09-23T13:54:03.599Z,8.51
2022-09-23T13:56:33.865Z,8.63
2022-09-23T13:59:37.439Z,8.54
2022-09-23T14:02:12.578Z,9.26
2022-09-23T14:04:40.498Z,10.99
2022-09-23T14:07:12.549Z,12.89
2022-09-23T14:09:50.051Z,14.81
2022-09-23T14:12:22.470Z,16.10
2022-09-23T14:14:54.376Z,18.12
2022-09-23T14:17:23.090Z,19.22
2022-09-23T14:19:51.537Z,20.39
2022-09-23T14:22:28.665Z,22.25
2022-09-23T14:24:57.714Z,23.10
2022-09-23T14:27:36.236Z,24.27
2022-09-23T14:30:05.098Z,24.44
2022-09-23T14:32:33.391Z,25.09
2022-09-23T14:35:04.062Z,25.50
2022-09-23T14:37:57.540Z,27.11
2022-09-23T14:40:32.394Z,27.23
2022-09-23T14:43:24.280Z,28.03
2022-09-23T14:45:56.184Z,28.84
2022-09-23T14:48:34.762Z,28.42
2022-09-23T14:51:07.464Z,27.13
2022-09-23T14:53:45.803Z,27.02
2022-09-23T14:56:17.826Z,27.30
2022-09-23T14:58:58.119Z,27.81
2022-09-23T15:01:31.473Z,28.20
2022-09-23T15:04:16.132Z,28.24
2022-09-23T15:06:53.608Z,28.30
2022-09-23T15:09:27.121Z,27.98
2022-09-23T15:12:01.411Z,27.89
2022-09-23T15:14:38.814Z,28.00
2022-09-23T15:17:25.780Z,28.67
2022-09-23T15:20:18.525Z,28.72
2022-09-23T15:22:50.699Z,29.68
2022-09-23T15:25:22.747Z,29.54
2022-09-23T15:28:15.963Z,29.26
2022-09-23T15:30:43.416Z,29.83
2022-09-23T15:33:17.653Z,30.57
2022-09-23T15:35:49.493Z,31.06
2022-09-23T15:38:17.872Z,30.94
2022-09-23T15:40:46.062Z,32.82
2022-09-23T15:43:23.433Z,33.44
2022-09-23T15:46:05.117Z,34.00
2022-09-23T15:48:52.356Z,35.24
2022-09-23T15:51:23.329Z,35.19
2022-09-23T15:53:55.227Z,35.54
2022-09-23T15:56:24.651Z,36.14
2022-09-23T15:58:51.881Z,36.62
2022-09-23T16:01:30.346Z,36.78
2022-09-23T16:04:00.268Z,37.80
2022-09-23T16:06:28.155Z,37.59
2022-09-23T16:08:55.992Z,37.92
2022-09-23T16:11:31.826Z,38.82
2022-09-23T16:14:00.840Z,39.27
2022-09-23T16:16:28.977Z,39.54
2022-09-23T16:18:56.240Z,40.23
2022-09-23T16:21:28.691Z,41.00
2022-09-23T16:23:57.386Z,41.12
2022-09-23T16:26:34.750Z,40.90
2022-09-23T16:29:02.630Z,41.38
2022-09-23T16:31:31.352Z,41.79
2022-09-23T16:34:02.198Z,41.80
2022-09-23T16:36:41.138Z,42.08
2022-09-23T16:39:12.448Z,42.08
2022-09-23T16:41:42.908Z,42.22
2022-09-23T16:44:12.581Z,42.42
2022-09-23T16:46:42.939Z,42.79
2022-09-23T16:49:12.226Z,43.26
2022-09-23T16:51:40.335Z,43.93
2022-09-23T16:54:11.925Z,44.54
2022-09-23T16:56:46.472Z,44.73
2022-09-23T16:59:15.672Z,44.74
2022-09-23T17:02:02.602Z,45.60
2022-09-23T17:04:29.963Z,46.04
2022-09-23T17:06:57.897Z,46.58
2022-09-23T17:09:30.259Z,47.64
2022-09-23T17:12:18.454Z,48.34
2022-09-23T17:14:45.954Z,48.91
2022-09-23T17:17:13.214Z,49.29
2022-09-23T17:19:41.562Z,49.43
2022-09-23T17:22:10.024Z,49.61
2022-09-23T17:24:37.201Z,49.19
2022-09-23T17:27:04.443Z,49.12
2022-09-23T17:29:32.088Z,49.91
2022-09-23T17:31:59.420Z,50.29
2022-09-23T17:34:28.886Z,50.49
2022-09-23T17:36:56.462Z,51.60
2022-09-23T17:39:23.698Z,52.07
2022-09-23T17:41:51.360Z,52.17
2022-09-23T17:44:18.994Z,51.89
2022-09-23T17:46:47.259Z,52.36
2022-09-23T17:49:15.128Z,52.62
2022-09-23T17:51:42.934Z,53.39
2022-09-23T17:54:11.115Z,53.86
2022-09-23T17:56:38.356Z,54.92
2022-09-23T17:59:05.889Z,55.08
2022-09-23T18:01:35.230Z,55.61
2022-09-23T18:04:05.806Z,55.56
2022-09-23T18:06:37.310Z,56.77
2022-09-23T18:09:07.800Z,57.18
2022-09-23T18:11:38.774Z,57.38
2022-09-23T18:14:13.139Z,57.69
2022-09-23T18:16:43.224Z,57.75
2022-09-23T18:19:14.400Z,57.95
2022-09-23T18:21:47.069Z,58.20
2022-09-23T18:24:31.827Z,58.04
2022-09-23T18:27:01.367Z,57.88
2022-09-23T18:29:28.807Z,57.57
2022-09-23T18:31:56.482Z,57.17
2022-09-23T18:34:24.543Z,56.98
2022-09-23T18:36:51.988Z,56.39
2022-09-23T18:39:19.533Z,56.09
2022-09-23T18:41:49.619Z,56.61
2022-09-23T18:44:17.324Z,58.37
2022-09-23T18:46:44.898Z,58.81
2022-09-23T18:49:50.805Z,58.96
2022-09-23T18:52:18.276Z,58.77
2022-09-23T18:54:46.970Z,58.62
2022-09-23T18:57:14.748Z,58.16
2022-09-23T18:59:42.228Z,58.09
2022-09-23T19:02:10.044Z,57.74
2022-09-23T19:04:38.315Z,57.64
2022-09-23T19:07:07.114Z,57.59
2022-09-23T19:09:34.654Z,57.78
2022-09-23T19:12:03.471Z,58.70
2022-09-23T19:14:30.692Z,58.96
2022-09-23T19:16:59.054Z,58.98
2022-09-23T19:19:26.324Z,59.16
2022-09-23T19:21:54.903Z,59.08
2022-09-23T19:24:22.780Z,59.22
2022-09-23T19:26:50.477Z,59.27
2022-09-23T19:29:22.154Z,59.16
2022-09-23T19:31:51.068Z,59.68
2022-09-23T19:34:26.105Z,59.90
2022-09-23T19:36:59.995Z,60.64
2022-09-23T19:39:31.807Z,61.03
2022-09-23T19:41:59.494Z,61.93
2022-09-23T19:44:28.694Z,61.47
2022-09-23T19:46:57.544Z,62.09
2022-09-23T19:49:26.294Z,61.53
2022-09-23T19:51:56.056Z,61.52
2022-09-23T19:54:26.694Z,61.74
2022-09-23T19:56:54.433Z,61.49
2022-09-23T19:59:21.728Z,61.69
2022-09-23T20:01:49.402Z,62.05
2022-09-23T20:04:17.310Z,62.85
2022-09-23T20:06:46.158Z,63.60
2022-09-23T20:09:13.775Z,63.54
2022-09-23T20:11:43.190Z,63.88
2022-09-23T20:14:11.142Z,65.39
2022-09-23T20:16:39.518Z,65.53
2022-09-23T20:19:07.214Z,65.62
2022-09-23T20:21:35.491Z,66.34
2022-09-23T20:24:07.627Z,65.40
2022-09-23T20:26:54.247Z,65.28
2022-09-23T20:29:22.073Z,65.56
2022-09-23T20:31:49.771Z,66.54
2022-09-23T20:34:17.071Z,67.21
2022-09-23T20:36:44.340Z,67.15
2022-09-23T20:39:11.792Z,68.08
2022-09-23T20:41:39.887Z,67.99
2022-09-23T20:44:14.011Z,67.52
2022-09-23T20:46:48.477Z,67.30
2022-09-23T20:49:20.950Z,66.72
2022-09-23T20:51:49.416Z,66.30
2022-09-23T20:54:21.046Z,66.22
2022-09-23T20:56:48.504Z,66.53
2022-09-23T20:59:18.012Z,66.89
2022-09-23T21:01:45.596Z,68.42
2022-09-23T21:04:13.315Z,68.59
2022-09-23T21:06:40.748Z,68.97
2022-09-23T21:09:08.187Z,70.84
2022-09-23T21:11:35.742Z,71.32
2022-09-23T21:14:03.394Z,71.94
2022-09-23T21:16:31.102Z,73.00
2022-09-23T21:19:00.050Z,74.37
2022-09-23T21:21:27.570Z,74.87
2022-09-23T21:23:56.491Z,75.01
2022-09-23T21:26:31.424Z,74.32
2022-09-23T21:29:01.430Z,75.93
2022-09-23T21:31:38.389Z,75.06
2022-09-23T21:34:09.203Z,75.89
2022-09-23T21:36:39.399Z,76.23
2022-09-23T21:39:09.377Z,77.64
2022-09-23T21:41:37.910Z,78.46
2022-09-23T21:44:08.319Z,78.05
2022-09-23T21:46:36.988Z,78.82
2022-09-23T21:49:05.305Z,78.36
2022-09-23T21:51:40.851Z,79.38
2022-09-23T21:54:15.737Z,78.81
2022-09-23T21:56:44.613Z,78.78
2022-09-23T21:59:12.230Z,78.59
2022-09-23T22:01:44.560Z,78.46
2022-09-23T22:04:17.761Z,79.33
2022-09-23T22:06:46.628Z,78.65
2022-09-23T22:09:18.663Z,79.42
2022-09-23T22:12:05.240Z,79.13
2022-09-23T22:14:33.120Z,79.39
2022-09-23T22:17:03.871Z,80.11
2022-09-23T22:19:40.223Z,80.52
2022-09-23T22:22:15.948Z,80.61
2022-09-23T22:24:45.842Z,81.29
2022-09-23T22:27:17.029Z,81.65
2022-09-23T22:30:02.517Z,82.27
2022-09-23T22:32:41.815Z,82.85
2022-09-23T22:35:18.880Z,82.51
2022-09-23T22:37:48.063Z,83.59
2022-09-23T22:40:16.425Z,83.01
2022-09-23T22:42:44.231Z,83.50
2022-09-23T22:45:13.113Z,84.20
2022-09-23T22:47:43.606Z,83.15
2022-09-23T22:50:12.235Z,83.15
2022-09-23T22:52:40.523Z,83.23
2022-09-23T22:55:08.508Z,83.63
2022-09-23T22:57:36.776Z,84.04
2022-09-23T23:00:06.855Z,84.40
2022-09-23T23:02:34.412Z,84.50
2022-09-23T23:05:02.289Z,84.36
2022-09-23T23:07:29.759Z,84.27
2022-09-23T23:09:57.036Z,83.86
2022-09-23T23:12:24.299Z,83.87
2022-09-23T23:14:51.672Z,83.84
2022-09-23T23:17:18.979Z,83.98
2022-09-23T23:19:47.540Z,85.55
2022-09-23T23:22:14.927Z,85.38
2022-09-23T23:24:42.226Z,86.03
2022-09-23T23:27:09.475Z,85.45
2022-09-23T23:29:36.868Z,84.83
2022-09-23T23:32:05.170Z,84.32
2022-09-23T23:34:32.363Z,84.19
2022-09-23T23:36:59.713Z,83.87
2022-09-23T23:39:26.921Z,83.58
2022-09-23T23:41:56.890Z,82.88
2022-09-23T23:44:26.577Z,82.50
2022-09-23T23:46:55.177Z,82.12
2022-09-23T23:49:23.084Z,81.99
2022-09-23T23:51:50.523Z,81.78
2022-09-23T23:54:17.809Z,81.35
2022-09-23T23:56:45.270Z,81.50
2022-09-23T23:59:12.853Z,82.36
